Time;durP1;ratioP1;P1;durP2;ratioP2;P2;SDS_P1;SDS_P2;PMS_P1;PMS_P2;Temp;Humidity;BMP_temperature;BMP_pressure;BME280_temperature;BME280_humidity;BME280_pressure;Samples;Min_cycle;Max_cycle;Signal;HPM_P1;HPM_P2
2023/05/12 00:00:39;;;;;;;5.60;3.50;;;;;;;7.93;100.00;101152.34;5020965;28;20152;-76
2023/05/12 00:03:04;;;;;;;4.85;3.42;;;;;;;8.06;100.00;101166.59;5006765;28;20406;-78
2023/05/12 00:05:30;;;;;;;9.38;4.40;;;;;;;7.94;100.00;101140.19;5020353;28;20108;-78
2023/05/12 00:07:56;;;;;;;6.38;3.97;;;;;;;7.14;100.00;100994.72;5016548;28;20085;-81
2023/05/12 00:10:21;;;;;;;6.68;4.03;;;;;;;6.86;100.00;100985.34;5012720;28;20041;-77
2023/05/12 00:12:47;;;;;;;7.35;4.65;;;;;;;7.51;100.00;101100.88;5024836;28;20050;-76
2023/05/12 00:15:12;;;;;;;7.35;4.75;;;;;;;7.63;100.00;101105.50;5004320;28;20490;-76
2023/05/12 00:17:38;;;;;;;8.90;5.00;;;;;;;7.14;100.00;101059.97;5014156;28;20045;-75
2023/05/12 00:20:04;;;;;;;9.93;5.15;;;;;;;6.37;100.00;100969.38;5007788;28;20073;-79
2023/05/12 00:22:30;;;;;;;6.38;4.43;;;;;;;6.38;100.00;100973.75;5011437;28;20025;-75
2023/05/12 00:24:56;;;;;;;6.88;1.23;;;;;;;6.30;100.00;100965.72;5018270;28;20439;-77
2023/05/12 00:27:23;;;;;;;8.80;5.18;;;;;;;6.93;100.00;101074.25;5013588;28;20503;-77
2023/05/12 00:29:48;;;;;;;7.05;5.03;;;;;;;6.30;100.00;100957.91;5019258;28;20783;-76
2023/05/12 00:32:14;;;;;;;1.95;1.85;;;;;;;6.31;100.00;100982.25;5016038;28;20061;-78
2023/05/12 00:34:41;;;;;;;0.50;0.50;;;;;;;6.75;100.00;101053.78;5014189;28;20052;-76
2023/05/12 00:37:06;;;;;;;1.55;0.95;;;;;;;6.24;100.00;100982.94;5019299;28;20030;-77
2023/05/12 00:39:31;;;;;;;8.35;4.97;;;;;;;5.97;100.00;100936.16;5010959;28;20497;-77
2023/05/12 00:41:58;;;;;;;2.08;0.75;;;;;;;6.67;100.00;101062.25;5008945;28;20084;-78
2023/05/12 00:44:23;;;;;;;9.35;5.63;;;;;;;6.21;100.00;100995.88;5012374;28;20073;-76
2023/05/12 00:46:49;;;;;;;1.13;0.85;;;;;;;5.75;100.00;100924.25;5018884;28;20081;-77
2023/05/12 00:49:15;;;;;;;1.35;1.05;;;;;;;6.40;100.00;101044.16;5011796;28;20481;-75
2023/05/12 00:51:42;;;;;;;8.85;5.88;;;;;;;5.81;100.00;100955.69;5020290;28;20132;-76
2023/05/12 00:54:09;;;;;;;3.25;2.33;;;;;;;6.08;100.00;101012.88;5012716;28;20045;-77
2023/05/12 00:56:38;;;;;;;1.33;1.23;;;;;;;6.35;100.00;101067.50;5015255;28;20520;-77
2023/05/12 00:59:05;;;;;;;4.05;3.75;;;;;;;5.32;100.00;100923.91;5014200;28;20211;-77
2023/05/12 01:01:32;;;;;;;1.58;0.82;;;;;;;5.93;100.00;101027.22;5025570;28;20041;-77
2023/05/12 01:03:58;;;;;;;1.52;1.42;;;;;;;6.04;100.00;101039.69;5013346;28;20041;-79
2023/05/12 01:06:32;;;;;;;5.18;2.35;;;;;;;6.08;100.00;101054.56;5004802;28;20049;-78
2023/05/12 01:08:59;;;;;;;1.30;1.20;;;;;;;5.75;100.00;101012.78;5026681;28;20037;-76
2023/05/12 01:11:24;;;;;;;2.08;1.50;;;;;;;5.22;100.00;100912.34;5028850;28;20053;-78
2023/05/12 01:13:50;;;;;;;2.60;2.25;;;;;;;6.32;100.00;101051.75;5027987;28;20068;-76
2023/05/12 01:16:21;;;;;;;3.10;1.80;;;;;;;6.08;100.00;101041.53;5030089;28;20037;-75
2023/05/12 01:18:52;;;;;;;1.15;1.00;;;;;;;5.88;100.00;101020.13;5041738;28;20115;-78
2023/05/12 01:21:18;;;;;;;2.13;1.95;;;;;;;5.60;100.00;100964.63;5031151;28;20564;-79
2023/05/12 01:23:53;;;;;;;13.45;7.28;;;;;;;5.97;100.00;101032.53;5032543;28;20045;-76
2023/05/12 01:26:19;;;;;;;3.63;1.88;;;;;;;6.00;100.00;101033.50;5031191;28;20053;-76
2023/05/12 01:28:47;;;;;;;2.25;1.95;;;;;;;6.26;100.00;101046.41;5027599;28;20078;-76
2023/05/12 01:31:13;;;;;;;2.40;2.30;;;;;;;5.70;100.00;100927.59;5049116;28;20030;-77
2023/05/12 01:33:38;;;;;;;1.85;1.20;;;;;;;5.58;100.00;100915.97;5030696;28;20041;-77
2023/05/12 01:36:04;;;;;;;9.52;4.25;;;;;;;6.17;100.00;101035.72;5027568;28;20123;-77
2023/05/12 01:38:30;;;;;;;3.50;2.05;;;;;;;6.05;100.00;100974.59;5032657;28;20034;-77
2023/05/12 01:40:56;;;;;;;0.75;0.75;;;;;;;5.62;100.00;100951.63;5036970;28;20072;-77
2023/05/12 01:43:21;;;;;;;2.42;2.13;;;;;;;5.43;100.00;100950.22;5032018;28;20033;-77
2023/05/12 01:45:46;;;;;;;1.48;0.75;;;;;;;6.13;100.00;101033.03;5028895;28;20056;-77
2023/05/12 01:48:12;;;;;;;0.50;0.43;;;;;;;5.76;100.00;100992.00;5036832;28;20409;-78
2023/05/12 01:50:37;;;;;;;0.90;0.73;;;;;;;5.32;100.00;100910.03;5039870;28;20042;-79
2023/05/12 01:53:03;;;;;;;1.65;1.38;;;;;;;5.59;100.00;100951.56;5034800;28;20049;-75
2023/05/12 01:55:28;;;;;;;2.70;2.40;;;;;;;5.52;100.00;100950.50;5027238;28;20108;-77
2023/05/12 01:57:54;;;;;;;1.42;0.93;;;;;;;5.36;100.00;100943.06;5036717;28;20021;-75
2023/05/12 02:00:20;;;;;;;1.42;1.33;;;;;;;5.11;100.00;100892.06;5056125;28;20449;-77
2023/05/12 02:02:45;;;;;;;2.22;1.35;;;;;;;5.03;100.00;100871.00;5034820;28;20046;-75
2023/05/12 02:05:11;;;;;;;11.40;7.75;;;;;;;5.94;100.00;101035.94;5034847;28;20041;-78
2023/05/12 02:07:36;;;;;;;2.88;2.67;;;;;;;5.85;100.00;101005.28;5029522;28;20037;-76
2023/05/12 02:10:02;;;;;;;1.65;1.25;;;;;;;5.81;100.00;100980.00;5010126;28;20034;-76
2023/05/12 02:12:28;;;;;;;2.60;2.08;;;;;;;4.81;100.00;100818.34;5011128;28;20380;-78
2023/05/12 02:14:53;;;;;;;2.15;1.33;;;;;;;5.53;100.00;100949.69;5015565;28;20050;-78
2023/05/12 02:17:19;;;;;;;1.52;0.80;;;;;;;5.87;100.00;101018.31;5012131;28;20046;-76
2023/05/12 02:19:45;;;;;;;1.80;1.38;;;;;;;5.80;100.00;101013.78;5013209;28;20437;-77
2023/05/12 02:22:10;;;;;;;2.17;1.27;;;;;;;4.95;100.00;100869.91;5009459;28;20026;-75
2023/05/12 02:24:36;;;;;;;2.47;2.28;;;;;;;4.94;100.00;100860.31;5010828;28;20045;-75
2023/05/12 02:27:01;;;;;;;1.85;1.60;;;;;;;5.69;100.00;100995.25;5025542;28;20072;-76
2023/05/12 02:29:27;;;;;;;4.28;1.58;;;;;;;5.22;100.00;100908.84;5009562;28;20050;-77
2023/05/12 02:31:52;;;;;;;2.38;1.23;;;;;;;4.98;100.00;100876.06;5007526;28;20504;-75
2023/05/12 02:34:18;;;;;;;1.65;1.42;;;;;;;5.37;100.00;100913.63;5013283;28;20025;-76
2023/05/12 02:36:43;;;;;;;2.00;1.80;;;;;;;5.37;100.00;100914.50;5017845;28;20046;-79
2023/05/12 02:39:09;;;;;;;5.40;2.45;;;;;;;5.76;100.00;100993.69;5009359;28;20210;-79
2023/05/12 02:41:34;;;;;;;1.52;1.15;;;;;;;5.69;100.00;100988.34;5018897;28;20033;-76
2023/05/12 02:43:59;;;;;;;12.35;6.63;;;;;;;5.18;100.00;100884.47;5018426;28;20149;-79
2023/05/12 02:46:25;;;;;;;2.38;1.20;;;;;;;5.85;100.00;101000.06;5008910;28;20057;-76
2023/05/12 02:48:50;;;;;;;1.70;1.20;;;;;;;6.09;100.00;101023.34;5014460;28;20034;-76
2023/05/12 02:51:16;;;;;;;1.35;0.80;;;;;;;5.88;100.00;101000.16;5010564;28;20034;-75
2023/05/12 02:53:41;;;;;;;1.33;1.10;;;;;;;5.74;100.00;101005.81;5013558;28;20037;-76
2023/05/12 02:56:07;;;;;;;1.98;1.55;;;;;;;5.56;100.00;100985.31;5011043;28;20052;-75
2023/05/12 02:58:33;;;;;;;2.90;1.58;;;;;;;5.70;100.00;101023.94;5012081;28;20458;-76
2023/05/12 03:00:58;;;;;;;1.75;1.20;;;;;;;5.64;100.00;101010.75;5013113;28;20045;-77
2023/05/12 03:03:24;;;;;;;1.60;1.00;;;;;;;6.08;100.00;101044.16;5010479;28;20046;-77
2023/05/12 03:05:50;;;;;;;6.85;2.25;;;;;;;5.96;100.00;101031.66;5009521;28;20050;-78
2023/05/12 03:08:15;;;;;;;1.08;0.98;;;;;;;5.84;100.00;101008.72;5015399;28;20049;-76
2023/05/12 03:10:42;;;;;;;1.05;0.88;;;;;;;6.11;100.00;101049.44;5009989;28;20164;-76
2023/05/12 03:13:08;;;;;;;2.47;2.28;;;;;;;6.15;100.00;101051.28;5017330;28;20057;-80
2023/05/12 03:15:33;;;;;;;2.30;1.83;;;;;;;6.21;100.00;101043.66;5010125;28;20045;-77
2023/05/12 03:17:59;;;;;;;3.60;2.65;;;;;;;5.77;100.00;100961.63;5006682;28;20057;-77
2023/05/12 03:20:26;;;;;;;2.58;0.75;;;;;;;6.32;100.00;101046.53;5005721;28;20434;-78
2023/05/12 03:22:51;;;;;;;3.30;1.65;;;;;;;5.78;100.00;100956.44;5009841;28;20066;-76
2023/05/12 03:25:17;;;;;;;2.15;1.95;;;;;;;6.39;100.00;101050.19;5010450;28;20072;-75
2023/05/12 03:27:42;;;;;;;8.68;3.95;;;;;;;5.87;100.00;100911.56;5032354;28;20088;-75
2023/05/12 03:30:08;;;;;;;14.35;8.88;;;;;;;6.76;100.00;101039.03;5032986;28;20056;-81
2023/05/12 03:32:34;;;;;;;1.20;0.88;;;;;;;7.12;100.00;101048.63;5038493;28;20077;-74
2023/05/12 03:34:59;;;;;;;1.38;1.20;;;;;;;6.34;100.00;100931.09;5027495;28;20468;-76
2023/05/12 03:37:25;;;;;;;2.65;2.05;;;;;;;6.34;100.00;100920.66;5031895;28;20094;-78
2023/05/12 03:39:50;;;;;;;3.17;1.75;;;;;;;7.18;100.00;101038.31;5034925;28;20442;-77
2023/05/12 03:42:16;;;;;;;13.40;8.32;;;;;;;6.89;100.00;100973.28;5031299;28;20045;-77
2023/05/12 03:44:41;;;;;;;9.13;6.20;;;;;;;7.46;100.00;101065.94;5031491;28;20041;-76
2023/05/12 03:47:07;;;;;;;2.08;1.70;;;;;;;6.55;100.00;100898.56;5028882;28;20568;-75
2023/05/12 03:49:32;;;;;;;10.18;7.65;;;;;;;7.02;100.00;100973.56;5010914;28;20022;-75
2023/05/12 03:51:58;;;;;;;1.58;1.48;;;;;;;7.69;100.00;101100.44;5023219;28;20787;-77
2023/05/12 03:54:23;;;;;;;8.90;6.72;;;;;;;7.67;100.00;101106.47;5027756;28;20052;-78
2023/05/12 03:56:48;;;;;;;2.30;1.35;;;;;;;6.92;100.00;100978.56;5023610;28;20092;-78
2023/05/12 03:59:15;;;;;;;1.85;1.25;;;;;;;7.17;100.00;100989.59;5013215;28;20053;-78
2023/05/12 04:01:40;;;;;;;2.63;1.73;;;;;;;7.14;100.00;100982.56;5011009;28;20041;-77
2023/05/12 04:04:05;;;;;;;2.60;2.38;;;;;;;7.09;100.00;101001.56;5003312;28;20795;-81
2023/05/12 04:06:31;;;;;;;2.25;2.05;;;;;;;7.03;100.00;101043.19;5003605;28;20456;-79
2023/05/12 04:08:56;;;;;;;10.27;6.40;;;;;;;7.03;100.00;100996.22;5010265;28;20070;-75
2023/05/12 04:11:22;;;;;;;9.30;6.43;;;;;;;7.88;100.00;101088.66;5012169;28;20065;-77
2023/05/12 04:13:47;;;;;;;9.18;7.20;;;;;;;7.62;100.00;101041.06;5018874;28;20128;-75
2023/05/12 04:16:13;;;;;;;10.27;7.22;;;;;;;8.27;100.00;101111.28;5021653;28;20045;-75
2023/05/12 04:18:38;;;;;;;3.83;2.05;;;;;;;8.25;100.00;101120.81;5008394;28;20132;-76
2023/05/12 04:21:04;;;;;;;9.73;6.97;;;;;;;7.60;100.00;100998.38;5006433;28;20073;-76
2023/05/12 04:23:29;;;;;;;11.85;7.90;;;;;;;8.51;100.00;101131.84;5022878;28;20123;-78
2023/05/12 04:25:55;;;;;;;10.23;7.43;;;;;;;8.59;100.00;101127.66;5015557;28;20057;-76
2023/05/12 04:28:21;;;;;;;10.98;7.45;;;;;;;8.11;100.00;101028.16;5008550;28;20033;-75
2023/05/12 04:30:46;;;;;;;13.10;8.98;;;;;;;8.78;100.00;101120.13;5013984;28;20030;-77
2023/05/12 04:33:12;;;;;;;12.45;8.05;;;;;;;8.69;100.00;101115.63;5015067;28;20717;-76
2023/05/12 04:35:38;;;;;;;10.90;7.18;;;;;;;8.19;100.00;101008.28;5008928;28;20054;-77
2023/05/12 04:38:03;;;;;;;9.13;7.45;;;;;;;8.07;100.00;101026.34;5008395;28;20409;-75
2023/05/12 04:40:29;;;;;;;13.77;9.13;;;;;;;8.98;100.00;101147.56;5013926;28;20061;-76
2023/05/12 04:42:55;;;;;;;10.65;8.13;;;;;;;8.84;100.00;101118.53;5016954;28;20037;-79
2023/05/12 04:45:20;;;;;;;10.00;7.50;;;;;;;9.06;100.00;101161.69;5008117;28;20552;-78
2023/05/12 04:47:46;;;;;;;10.25;7.28;;;;;;;8.87;100.00;101133.41;5015507;28;20054;-77
2023/05/12 04:50:11;;;;;;;17.25;8.68;;;;;;;8.52;100.00;101030.72;5013913;28;20107;-77
2023/05/12 04:52:37;;;;;;;13.63;7.88;;;;;;;8.66;100.00;101037.06;5009780;28;20030;-78
2023/05/12 04:55:04;;;;;;;15.05;8.85;;;;;;;8.43;100.00;101039.28;5012989;28;20040;-77
2023/05/12 04:57:29;;;;;;;15.68;9.38;;;;;;;8.60;100.00;101023.91;5015132;28;20037;-80
2023/05/12 04:59:57;;;;;;;15.07;9.35;;;;;;;8.69;100.00;101029.31;5013438;28;20060;-80
2023/05/12 05:02:22;;;;;;;10.13;7.68;;;;;;;9.15;100.00;101162.69;5017457;28;20046;-77
2023/05/12 05:04:48;;;;;;;12.90;8.80;;;;;;;9.52;100.00;101185.16;5021090;28;20041;-76
2023/05/12 05:07:15;;;;;;;15.23;7.97;;;;;;;8.62;100.00;101062.31;5023299;28;20048;-77
2023/05/12 05:09:42;;;;;;;13.88;9.93;;;;;;;9.50;100.00;101169.44;5046045;28;20145;-79
2023/05/12 05:12:07;;;;;;;13.48;7.97;;;;;;;8.94;100.00;101051.50;5010733;28;20054;-79
2023/05/12 05:14:33;;;;;;;13.85;7.38;;;;;;;8.78;100.00;101190.78;5010282;28;20080;-76
2023/05/12 05:17:00;;;;;;;9.82;7.35;;;;;;;8.64;100.00;101073.69;5017690;28;20047;-77
2023/05/12 05:19:26;;;;;;;12.18;7.63;;;;;;;8.80;100.00;101139.38;5008891;28;20738;-79
2023/05/12 05:21:52;;;;;;;8.25;6.78;;;;;;;9.29;100.00;101180.44;5016902;28;20056;-76
2023/05/12 05:24:17;;;;;;;11.35;7.28;;;;;;;9.14;100.00;101185.38;5024325;28;20045;-79
2023/05/12 05:26:44;;;;;;;13.88;7.53;;;;;;;9.00;100.00;101118.81;5033485;28;20044;-77
2023/05/12 05:29:10;;;;;;;15.75;7.00;;;;;;;8.82;100.00;101099.28;5032803;28;20073;-76
2023/05/12 05:31:35;;;;;;;9.30;6.85;;;;;;;8.82;100.00;101075.72;5036538;28;20078;-77
2023/05/12 05:34:01;;;;;;;11.90;7.20;;;;;;;9.47;100.00;101189.47;5020207;28;20095;-76
2023/05/12 05:36:26;;;;;;;8.38;6.50;;;;;;;8.84;100.00;101084.50;5025957;28;20046;-77
2023/05/12 05:38:52;;;;;;;9.80;7.50;;;;;;;9.11;100.00;101177.47;5018514;28;20049;-76
2023/05/12 05:41:18;;;;;;;12.15;8.43;;;;;;;9.34;100.00;101193.63;5037284;28;20053;-79
2023/05/12 05:43:43;;;;;;;10.85;6.88;;;;;;;9.28;100.00;101217.06;5025038;28;20049;-76
2023/05/12 05:46:09;;;;;;;9.30;6.97;;;;;;;9.36;100.00;101177.91;5021696;28;20380;-76
2023/05/12 05:48:37;;;;;;;10.73;6.35;;;;;;;8.26;100.00;101007.53;5020259;28;20068;-76
2023/05/12 05:51:04;;;;;;;10.20;7.00;;;;;;;9.07;100.00;101099.75;5035325;28;20052;-77
2023/05/12 05:53:30;;;;;;;10.15;6.40;;;;;;;8.93;100.00;101109.09;5022516;28;20465;-77
2023/05/12 05:55:55;;;;;;;15.75;7.35;;;;;;;8.94;100.00;101096.00;5026411;28;20053;-76
2023/05/12 05:58:21;;;;;;;29.10;8.90;;;;;;;10.21;100.00;101238.69;5033636;28;20029;-76
2023/05/12 06:00:46;;;;;;;8.02;5.70;;;;;;;9.32;100.00;101115.84;5046162;28;20107;-77
2023/05/12 06:03:12;;;;;;;9.45;5.18;;;;;;;9.97;100.00;101256.66;5009672;28;20054;-76
2023/05/12 06:05:37;;;;;;;7.85;5.88;;;;;;;10.03;100.00;101248.91;5007425;28;20041;-75
2023/05/12 06:08:04;;;;;;;11.25;6.20;;;;;;;10.07;100.00;101253.34;5009523;28;20064;-77
2023/05/12 06:10:29;;;;;;;8.63;5.40;;;;;;;9.79;100.00;101149.81;5006926;28;20056;-78
2023/05/12 06:12:55;;;;;;;10.25;5.90;;;;;;;10.33;100.00;101285.25;5015568;28;20161;-75
2023/05/12 06:15:20;;;;;;;9.82;5.60;;;;;;;10.37;100.00;101257.28;5013651;28;20088;-76
2023/05/12 06:17:46;;;;;;;11.93;6.95;;;;;;;10.33;100.00;101212.66;5013099;28;20068;-75
2023/05/12 06:20:12;;;;;;;10.98;6.70;;;;;;;10.29;100.00;101255.44;5009093;28;20056;-77
2023/05/12 06:22:38;;;;;;;10.18;6.20;;;;;;;10.19;100.00;101168.72;5010227;28;20397;-78
2023/05/12 06:25:03;;;;;;;9.73;5.97;;;;;;;10.59;100.00;101269.00;5005385;28;20088;-75
2023/05/12 06:27:29;;;;;;;9.90;5.50;;;;;;;10.77;100.00;101301.63;5011940;28;20041;-76
2023/05/12 06:29:54;;;;;;;10.13;5.78;;;;;;;9.97;100.00;101178.88;5016900;28;20041;-76
2023/05/12 06:32:20;;;;;;;10.93;5.45;;;;;;;10.35;100.00;101263.41;5018385;28;20095;-79
2023/05/12 06:34:45;;;;;;;10.15;5.90;;;;;;;10.38;100.00;101267.81;5012746;28;20481;-76
2023/05/12 06:37:11;;;;;;;7.28;4.65;;;;;;;10.86;100.00;101305.22;5014627;28;20022;-76
2023/05/12 06:39:36;;;;;;;5.57;4.28;;;;;;;10.99;100.00;101330.78;5007657;28;20068;-77
2023/05/12 06:42:02;;;;;;;9.27;5.97;;;;;;;11.31;100.00;101322.44;5005365;28;20057;-77
2023/05/12 06:44:28;;;;;;;9.48;6.18;;;;;;;10.62;100.00;101235.78;5012379;28;20045;-76
2023/05/12 06:46:53;;;;;;;9.88;7.18;;;;;;;10.90;100.00;101331.53;5009810;28;20042;-77
2023/05/12 06:49:19;;;;;;;9.13;5.68;;;;;;;11.08;100.00;101340.53;5005893;28;20073;-76
2023/05/12 06:51:45;;;;;;;6.32;4.65;;;;;;;10.72;100.00;101305.94;4993713;28;20030;-75
2023/05/12 06:54:10;;;;;;;7.03;5.13;;;;;;;10.25;100.00;101206.38;5010570;28;20045;-76
2023/05/12 06:56:36;;;;;;;7.18;4.35;;;;;;;10.42;100.00;101242.50;5013530;28;20050;-75
2023/05/12 06:59:03;;;;;;;17.98;5.40;;;;;;;10.50;100.00;101212.88;5010233;28;20112;-75
2023/05/12 07:01:29;;;;;;;9.88;5.38;;;;;;;10.62;100.00;101248.91;5019531;28;20047;-78
2023/05/12 07:03:56;;;;;;;9.02;5.50;;;;;;;11.06;100.00;101284.47;5007740;28;20042;-76
2023/05/12 07:06:21;;;;;;;7.40;4.88;;;;;;;11.13;100.00;101244.28;5016993;28;20025;-76
2023/05/12 07:08:47;;;;;;;7.05;4.15;;;;;;;11.48;100.00;101341.88;5006624;28;20143;-75
2023/05/12 07:11:18;;;;;;;6.60;5.30;;;;;;;10.83;100.00;101221.16;5008791;28;20065;-70
2023/05/12 07:13:48;;;;;;;9.68;4.20;;;;;;;12.08;100.00;101357.41;5024127;28;20949;-70
2023/05/12 07:16:15;;;;;;;8.93;5.03;;;;;;;12.28;100.00;101357.59;5012332;28;20109;-69
2023/05/12 07:18:40;;;;;;;6.70;4.07;;;;;;;11.78;100.00;101258.94;5016459;28;20305;-71
2023/05/12 07:21:07;;;;;;;6.88;4.25;;;;;;;11.23;100.00;101240.00;5006421;28;20130;-72
2023/05/12 07:23:33;;;;;;;13.57;4.18;;;;;;;12.26;100.00;101365.47;5007330;28;20108;-71
2023/05/12 07:26:01;;;;;;;6.22;3.80;;;;;;;11.98;100.00;101386.25;5006643;28;20061;-70
2023/05/12 07:28:27;;;;;;;9.07;3.85;;;;;;;11.99;100.00;101369.63;5007106;28;20044;-70
2023/05/12 07:30:53;;;;;;;8.35;4.47;;;;;;;12.09;100.00;101367.97;5009396;28;20137;-71
2023/05/12 07:33:18;;;;;;;6.30;3.78;;;;;;;11.07;100.00;101273.97;5004340;28;20391;-71
2023/05/12 07:35:44;;;;;;;7.50;4.30;;;;;;;11.78;100.00;101354.47;5019088;28;20041;-69
2023/05/12 07:38:10;;;;;;;8.63;4.63;;;;;;;11.62;100.00;101356.06;5014160;28;20053;-71
2023/05/12 07:40:35;;;;;;;6.55;3.95;;;;;;;11.44;100.00;101371.63;5013766;28;20041;-70
2023/05/12 07:43:01;;;;;;;5.35;3.53;;;;;;;11.29;100.00;101246.22;5008710;28;20426;-71
2023/05/12 07:45:27;;;;;;;7.35;3.45;;;;;;;11.96;100.00;101330.16;5003813;28;20041;-70
2023/05/12 07:47:52;;;;;;;7.47;4.00;;;;;;;12.53;100.00;101388.50;5005692;28;20437;-71
2023/05/12 07:50:18;;;;;;;7.80;2.78;;;;;;;12.28;100.00;101390.06;5018101;28;20482;-69
2023/05/12 07:52:48;;;;;;;5.07;2.35;;;;;;;11.90;100.00;101381.81;5022037;28;20153;-70
2023/05/12 07:55:14;;;;;;;6.20;2.92;;;;;;;11.90;100.00;101358.13;5014250;28;20581;-72
2023/05/12 07:57:39;;;;;;;5.65;3.45;;;;;;;11.81;100.00;101356.25;5006553;28;20104;-71
2023/05/12 08:00:05;;;;;;;4.93;2.78;;;;;;;12.27;100.00;101363.72;5007530;28;20046;-71
2023/05/12 08:02:31;;;;;;;4.18;2.72;;;;;;;12.83;100.00;101365.88;5006989;28;20072;-71
2023/05/12 08:04:56;;;;;;;4.68;3.10;;;;;;;12.58;100.00;101281.47;5002426;28;20046;-71
2023/05/12 08:07:22;;;;;;;4.47;2.88;;;;;;;12.19;100.00;101361.03;5008256;28;20038;-72
2023/05/12 08:09:47;;;;;;;4.60;2.55;;;;;;;12.49;100.00;101394.63;5009154;28;20033;-71
2023/05/12 08:12:13;;;;;;;5.07;3.03;;;;;;;12.37;100.00;101362.94;5007470;28;20077;-71
2023/05/12 08:14:38;;;;;;;3.58;2.08;;;;;;;12.81;100.00;101379.06;5004173;28;20049;-71
2023/05/12 08:17:03;;;;;;;6.13;3.47;;;;;;;12.45;100.00;101338.44;5002798;28;20474;-71
2023/05/12 08:19:29;;;;;;;3.30;2.00;;;;;;;12.53;100.00;101399.03;5003087;28;20397;-71
2023/05/12 08:21:55;;;;;;;4.20;2.65;;;;;;;12.77;100.00;101328.97;5006071;28;20119;-71
2023/05/12 08:24:20;;;;;;;4.32;3.03;;;;;;;12.68;100.00;101398.25;5004056;28;20042;-70
2023/05/12 08:26:46;;;;;;;4.47;2.38;;;;;;;11.74;100.00;101279.06;5007893;28;20051;-73
2023/05/12 08:29:11;;;;;;;6.35;3.08;;;;;;;12.49;100.00;101389.34;5002654;28;20050;-72
2023/05/12 08:31:37;;;;;;;8.85;5.28;;;;;;;12.68;100.00;101409.66;5004072;28;20033;-72
2023/05/12 08:34:03;;;;;;;5.63;3.83;;;;;;;12.76;100.00;101393.03;5004175;28;20076;-72
2023/05/12 08:36:29;;;;;;;11.63;3.08;;;;;;;11.95;100.00;101303.81;5007736;28;20042;-72
2023/05/12 08:38:55;;;;;;;4.75;3.08;;;;;;;12.71;100.00;101371.94;5008038;28;20046;-70
2023/05/12 08:41:45;;;;;;;3.20;2.10;;;;;;;13.22;100.00;101401.22;5004992;28;20053;-72
2023/05/12 08:44:12;;;;;;;8.43;3.95;;;;;;;12.25;100.00;101266.34;5005003;28;20045;-70
2023/05/12 08:46:37;;;;;;;3.20;1.98;;;;;;;12.19;100.00;101292.63;5001042;28;20657;-70
2023/05/12 08:49:03;;;;;;;4.25;2.58;;;;;;;13.12;100.00;101380.97;5008132;28;20038;-72
2023/05/12 08:51:31;;;;;;;5.75;2.83;;;;;;;12.80;100.00;101305.28;5006129;28;20038;-70
2023/05/12 08:53:57;;;;;;;3.53;1.95;;;;;;;12.85;100.00;101372.94;5007191;28;20050;-70
2023/05/12 08:56:24;;;;;;;6.85;2.72;;;;;;;12.51;100.00;101361.28;5006976;28;20772;-71
2023/05/12 08:58:50;;;;;;;4.50;2.53;;;;;;;13.00;100.00;101393.22;4999356;28;20129;-73
2023/05/12 09:01:16;;;;;;;4.93;3.53;;;;;;;12.47;100.00;101380.56;5006173;28;20045;-71
2023/05/12 09:03:42;;;;;;;3.78;2.17;;;;;;;13.01;100.00;101371.25;5007252;28;20065;-72
2023/05/12 09:06:10;;;;;;;12.27;2.35;;;;;;;12.54;100.00;101273.53;5005783;28;20513;-71
2023/05/12 09:08:36;;;;;;;6.53;2.70;;;;;;;13.40;100.00;101393.44;4997734;28;20098;-71
2023/05/12 09:11:02;;;;;;;3.60;2.38;;;;;;;12.51;100.00;101302.50;5006340;28;20053;-71
2023/05/12 09:13:44;;;;;;;5.30;2.78;;;;;;;12.78;100.00;101381.69;5002005;28;20054;-70
2023/05/12 09:16:11;;;;;;;7.00;3.33;;;;;;;13.02;100.00;101377.44;5004047;28;20022;-70
2023/05/12 09:18:55;;;;;;;3.95;2.45;;;;;;;13.78;100.00;101381.25;4997595;28;20034;-71
2023/05/12 09:21:21;;;;;;;4.57;2.28;;;;;;;13.31;100.00;101261.59;5000312;28;20053;-72
2023/05/12 09:23:59;;;;;;;3.72;2.65;;;;;;;13.26;100.00;101381.94;5004706;28;20081;-72
2023/05/12 09:26:26;;;;;;;4.40;2.92;;;;;;;12.86;100.00;101282.50;5001271;28;20038;-69
2023/05/12 09:28:53;;;;;;;3.45;2.28;;;;;;;13.41;100.00;101376.75;5012206;28;20068;-70
2023/05/12 09:31:23;;;;;;;3.05;2.13;;;;;;;13.27;100.00;101284.47;5026389;28;20048;-71
2023/05/12 09:33:50;;;;;;;4.90;2.63;;;;;;;13.36;100.00;101353.88;5022246;28;20510;-71
2023/05/12 09:36:20;;;;;;;4.00;2.60;;;;;;;12.75;100.00;101265.75;5022265;28;20049;-70
2023/05/12 09:38:57;;;;;;;3.40;2.03;;;;;;;13.28;100.00;101364.41;5018292;28;20100;-74
2023/05/12 09:41:22;;;;;;;6.47;2.13;;;;;;;13.66;100.00;101364.53;5018483;28;20041;-75
2023/05/12 09:43:51;;;;;;;4.80;2.92;;;;;;;13.66;100.00;101242.31;5022548;28;20078;-75
2023/05/12 09:46:16;;;;;;;6.80;3.08;;;;;;;13.94;100.00;101347.00;5022413;28;20511;-76
2023/05/12 09:48:42;;;;;;;5.88;2.92;;;;;;;13.21;100.00;101247.50;5024861;28;20049;-74
2023/05/12 09:51:09;;;;;;;6.47;2.10;;;;;;;13.83;100.00;101361.03;5009567;28;20735;-75
2023/05/12 09:53:41;;;;;;;4.28;2.47;;;;;;;14.11;100.00;101354.03;5003541;28;20052;-75
2023/05/12 09:56:07;;;;;;;4.63;2.70;;;;;;;13.92;100.00;101256.38;4999098;28;20039;-75
2023/05/12 09:58:33;;;;;;;3.92;2.50;;;;;;;13.98;100.00;101346.97;5005489;28;20092;-74
2023/05/12 10:00:58;;;;;;;6.80;2.75;;;;;;;13.62;100.00;101259.88;5006727;28;20748;-75
2023/05/12 10:03:28;;;;;;;8.68;2.50;;;;;;;13.34;100.00;101251.06;4997377;28;20081;-74
2023/05/12 10:06:01;;;;;;;7.80;5.70;;;;;;;14.12;100.00;101347.91;5004689;28;20449;-74
2023/05/12 10:08:32;;;;;;;8.83;3.23;;;;;;;14.03;100.00;101358.44;4992547;28;20045;-75
2023/05/12 10:11:00;;;;;;;4.55;2.25;;;;;;;13.75;100.00;101342.56;5002909;28;20500;-74
2023/05/12 10:13:26;;;;;;;5.38;2.97;;;;;;;12.94;100.00;101266.72;5004720;28;20038;-74
2023/05/12 10:15:56;;;;;;;3.33;1.92;;;;;;;13.78;100.00;101368.94;5000799;28;20036;-74
2023/05/12 10:18:22;;;;;;;4.20;3.25;;;;;;;13.27;100.00;101350.34;5004412;28;20065;-73
2023/05/12 10:20:50;;;;;;;8.75;2.92;;;;;;;13.05;100.00;101237.78;4995456;28;20074;-74
2023/05/12 10:23:17;;;;;;;6.25;3.25;;;;;;;13.19;100.00;101230.78;4996187;28;20409;-75
2023/05/12 10:25:43;;;;;;;3.60;2.20;;;;;;;14.05;100.00;101347.00;5005378;28;20041;-73
2023/05/12 10:28:09;;;;;;;3.28;2.00;;;;;;;14.45;100.00;101349.66;5006057;28;20048;-79
2023/05/12 10:30:37;;;;;;;2.65;1.95;;;;;;;13.78;100.00;101239.69;4997252;28;20038;-74
2023/05/12 10:33:02;;;;;;;5.95;2.00;;;;;;;14.08;100.00;101343.50;5001267;28;20558;-75
2023/05/12 10:35:33;;;;;;;6.45;2.95;;;;;;;13.81;100.00;101329.38;5002590;28;20125;-74
2023/05/12 10:38:10;;;;;;;2.25;1.67;;;;;;;13.42;100.00;101248.47;5001871;28;20081;-73
2023/05/12 10:40:36;;;;;;;5.50;2.83;;;;;;;13.91;100.00;101339.06;5004948;28;20145;-75
2023/05/12 10:43:01;;;;;;;3.92;2.78;;;;;;;13.87;100.00;101347.84;5006144;28;20169;-74
2023/05/12 10:45:27;;;;;;;4.30;2.75;;;;;;;13.46;100.00;101266.03;5000250;28;20749;-73
2023/05/12 10:48:03;;;;;;;4.00;2.20;;;;;;;13.84;100.00;101275.75;5002630;28;20695;-74
2023/05/12 10:50:29;;;;;;;3.72;2.13;;;;;;;14.39;100.00;101347.00;4994670;28;20442;-76
2023/05/12 10:52:55;;;;;;;4.07;1.85;;;;;;;13.80;100.00;101256.41;5004689;28;20046;-75
2023/05/12 10:55:34;;;;;;;4.30;2.30;;;;;;;13.83;100.00;101261.66;4995777;28;20486;-75
2023/05/12 10:58:09;;;;;;;4.78;2.25;;;;;;;13.50;100.00;101255.47;5000622;28;20038;-73
2023/05/12 11:00:53;;;;;;;3.60;2.30;;;;;;;14.19;100.00;101351.41;5005080;28;20049;-75
2023/05/12 11:03:23;;;;;;;2.90;1.73;;;;;;;14.36;100.00;101325.88;5003824;28;20053;-75
2023/05/12 11:06:03;;;;;;;5.53;3.33;;;;;;;14.31;100.00;101286.28;4998365;28;20205;-74
2023/05/12 11:08:30;;;;;;;4.43;2.17;;;;;;;14.23;91.68;101248.44;5005505;28;20168;-72
2023/05/12 11:10:56;;;;;;;5.35;2.83;;;;;;;14.19;81.52;101252.00;5003942;28;20128;-71
2023/05/12 11:13:23;;;;;;;2.67;1.50;;;;;;;15.02;80.23;101367.19;4996119;28;20056;-73
2023/05/12 11:15:49;;;;;;;3.05;1.40;;;;;;;15.12;70.09;101361.84;5001370;28;20033;-72